sensor_id;sensor_type;location;lat;lon;timestamp;temperature;humidity
25923;DHT22;13725;51.170;4.442;2023-05-28T00:00:11;16.30;99.90
25923;DHT22;13725;51.170;4.442;2023-05-28T00:02:41;16.10;99.90
25923;DHT22;13725;51.170;4.442;2023-05-28T00:05:07;16.00;99.90
25923;DHT22;13725;51.170;4.442;2023-05-28T00:07:33;16.00;99.90
25923;DHT22;13725;51.170;4.442;2023-05-28T00:09:59;15.90;99.90
25923;DHT22;13725;51.170;4.442;2023-05-28T00:12:25;15.90;99.90
25923;DHT22;13725;51.170;4.442;2023-05-28T00:14:51;15.80;99.90
25923;DHT22;13725;51.170;4.442;2023-05-28T00:17:17;15.80;99.90
25923;DHT22;13725;51.170;4.442;2023-05-28T00:19:44;15.80;99.90
25923;DHT22;13725;51.170;4.442;2023-05-28T00:22:10;15.70;99.90
25923;DHT22;13725;51.170;4.442;2023-05-28T00:24:36;15.70;99.90
25923;DHT22;13725;51.170;4.442;2023-05-28T00:27:02;15.60;99.90
25923;DHT22;13725;51.170;4.442;2023-05-28T00:29:32;15.60;99.90
25923;DHT22;13725;51.170;4.442;2023-05-28T00:31:59;15.60;99.90
25923;DHT22;13725;51.170;4.442;2023-05-28T00:34:25;15.60;99.90
25923;DHT22;13725;51.170;4.442;2023-05-28T00:36:51;15.60;99.90
25923;DHT22;13725;51.170;4.442;2023-05-28T00:39:18;15.50;99.90
25923;DHT22;13725;51.170;4.442;2023-05-28T00:41:44;15.50;99.90
25923;DHT22;13725;51.170;4.442;2023-05-28T00:44:10;15.50;99.90
25923;DHT22;13725;51.170;4.442;2023-05-28T00:46:41;15.50;99.90
25923;DHT22;13725;51.170;4.442;2023-05-28T00:49:10;15.50;99.90
25923;DHT22;13725;51.170;4.442;2023-05-28T00:51:36;15.50;99.90
25923;DHT22;13725;51.170;4.442;2023-05-28T00:54:05;15.40;99.90
25923;DHT22;13725;51.170;4.442;2023-05-28T00:56:31;15.40;99.90
25923;DHT22;13725;51.170;4.442;2023-05-28T00:59:00;15.40;99.90
25923;DHT22;13725;51.170;4.442;2023-05-28T01:01:27;15.50;99.90
25923;DHT22;13725;51.170;4.442;2023-05-28T01:03:53;15.40;99.90
25923;DHT22;13725;51.170;4.442;2023-05-28T01:06:20;15.40;99.90
25923;DHT22;13725;51.170;4.442;2023-05-28T01:08:48;15.40;99.90
25923;DHT22;13725;51.170;4.442;2023-05-28T01:11:17;15.30;99.90
25923;DHT22;13725;51.170;4.442;2023-05-28T01:13:45;15.30;99.90
25923;DHT22;13725;51.170;4.442;2023-05-28T01:16:11;15.20;99.90
25923;DHT22;13725;51.170;4.442;2023-05-28T01:18:37;15.20;99.90
25923;DHT22;13725;51.170;4.442;2023-05-28T01:21:05;15.30;99.90
25923;DHT22;13725;51.170;4.442;2023-05-28T01:23:58;15.20;99.90
25923;DHT22;13725;51.170;4.442;2023-05-28T01:26:25;15.20;99.90
25923;DHT22;13725;51.170;4.442;2023-05-28T01:28:52;15.10;99.90
25923;DHT22;13725;51.170;4.442;2023-05-28T01:31:18;15.10;99.90
25923;DHT22;13725;51.170;4.442;2023-05-28T01:33:44;15.00;99.90
25923;DHT22;13725;51.170;4.442;2023-05-28T01:36:18;15.10;99.90
25923;DHT22;13725;51.170;4.442;2023-05-28T01:38:47;15.10;99.90
25923;DHT22;13725;51.170;4.442;2023-05-28T01:41:14;15.20;99.90
25923;DHT22;13725;51.170;4.442;2023-05-28T01:43:42;15.20;99.90
25923;DHT22;13725;51.170;4.442;2023-05-28T01:46:09;15.00;99.90
25923;DHT22;13725;51.170;4.442;2023-05-28T01:48:36;14.90;99.90
25923;DHT22;13725;51.170;4.442;2023-05-28T01:51:02;15.10;99.90
25923;DHT22;13725;51.170;4.442;2023-05-28T01:53:28;14.90;99.90
25923;DHT22;13725;51.170;4.442;2023-05-28T01:55:55;14.80;99.90
25923;DHT22;13725;51.170;4.442;2023-05-28T01:58:22;14.80;99.90
25923;DHT22;13725;51.170;4.442;2023-05-28T02:01:43;14.90;99.90
25923;DHT22;13725;51.170;4.442;2023-05-28T02:03:44;14.80;99.90
25923;DHT22;13725;51.170;4.442;2023-05-28T02:06:10;14.80;99.90
25923;DHT22;13725;51.170;4.442;2023-05-28T02:08:36;14.80;99.90
25923;DHT22;13725;51.170;4.442;2023-05-28T02:11:02;14.70;99.90
25923;DHT22;13725;51.170;4.442;2023-05-28T02:13:28;14.60;99.90
25923;DHT22;13725;51.170;4.442;2023-05-28T02:15:55;14.50;99.90
25923;DHT22;13725;51.170;4.442;2023-05-28T02:18:21;14.60;99.90
25923;DHT22;13725;51.170;4.442;2023-05-28T02:20:46;14.60;99.90
25923;DHT22;13725;51.170;4.442;2023-05-28T02:23:13;14.50;99.90
25923;DHT22;13725;51.170;4.442;2023-05-28T02:25:39;14.60;99.90
25923;DHT22;13725;51.170;4.442;2023-05-28T02:28:05;14.40;99.90
25923;DHT22;13725;51.170;4.442;2023-05-28T02:30:32;14.40;99.90
25923;DHT22;13725;51.170;4.442;2023-05-28T02:32:57;14.30;99.90
25923;DHT22;13725;51.170;4.442;2023-05-28T02:35:23;14.30;99.90
25923;DHT22;13725;51.170;4.442;2023-05-28T02:37:50;14.40;99.90
25923;DHT22;13725;51.170;4.442;2023-05-28T02:40:16;14.20;99.90
25923;DHT22;13725;51.170;4.442;2023-05-28T02:42:42;14.20;99.90
25923;DHT22;13725;51.170;4.442;2023-05-28T02:45:08;14.20;99.90
25923;DHT22;13725;51.170;4.442;2023-05-28T02:47:34;14.20;99.90
25923;DHT22;13725;51.170;4.442;2023-05-28T02:50:00;14.10;99.90
25923;DHT22;13725;51.170;4.442;2023-05-28T02:52:27;14.10;99.90
25923;DHT22;13725;51.170;4.442;2023-05-28T02:54:53;14.10;99.90
25923;DHT22;13725;51.170;4.442;2023-05-28T02:57:19;14.10;99.90
25923;DHT22;13725;51.170;4.442;2023-05-28T02:59:45;14.10;99.90
25923;DHT22;13725;51.170;4.442;2023-05-28T03:02:11;14.00;99.90
25923;DHT22;13725;51.170;4.442;2023-05-28T03:04:37;14.00;99.90
25923;DHT22;13725;51.170;4.442;2023-05-28T03:07:04;14.00;99.90
25923;DHT22;13725;51.170;4.442;2023-05-28T03:09:33;14.00;99.90
25923;DHT22;13725;51.170;4.442;2023-05-28T03:11:59;14.10;99.90
25923;DHT22;13725;51.170;4.442;2023-05-28T03:14:26;14.00;99.90
25923;DHT22;13725;51.170;4.442;2023-05-28T03:16:51;14.00;99.90
25923;DHT22;13725;51.170;4.442;2023-05-28T03:19:22;14.00;99.90
25923;DHT22;13725;51.170;4.442;2023-05-28T03:21:47;13.90;99.90
25923;DHT22;13725;51.170;4.442;2023-05-28T03:24:14;13.90;99.90
25923;DHT22;13725;51.170;4.442;2023-05-28T03:26:44;13.80;99.90
25923;DHT22;13725;51.170;4.442;2023-05-28T03:29:11;13.80;99.90
25923;DHT22;13725;51.170;4.442;2023-05-28T03:31:55;13.80;99.90
25923;DHT22;13725;51.170;4.442;2023-05-28T03:34:21;13.80;99.90
25923;DHT22;13725;51.170;4.442;2023-05-28T03:36:47;13.90;99.90
25923;DHT22;13725;51.170;4.442;2023-05-28T03:39:12;13.70;99.90
25923;DHT22;13725;51.170;4.442;2023-05-28T03:41:39;13.70;99.90
25923;DHT22;13725;51.170;4.442;2023-05-28T03:44:07;13.70;99.90
25923;DHT22;13725;51.170;4.442;2023-05-28T03:46:32;13.70;99.90
25923;DHT22;13725;51.170;4.442;2023-05-28T03:48:58;13.70;99.90
25923;DHT22;13725;51.170;4.442;2023-05-28T03:51:25;13.70;99.90
25923;DHT22;13725;51.170;4.442;2023-05-28T03:53:52;13.60;99.90
25923;DHT22;13725;51.170;4.442;2023-05-28T03:56:18;13.80;99.90
25923;DHT22;13725;51.170;4.442;2023-05-28T03:58:45;13.60;99.90
25923;DHT22;13725;51.170;4.442;2023-05-28T04:01:11;13.80;99.90
25923;DHT22;13725;51.170;4.442;2023-05-28T04:03:38;13.70;99.90
25923;DHT22;13725;51.170;4.442;2023-05-28T04:06:04;13.70;99.90
25923;DHT22;13725;51.170;4.442;2023-05-28T04:08:30;13.70;99.90
25923;DHT22;13725;51.170;4.442;2023-05-28T04:10:57;13.70;99.90
25923;DHT22;13725;51.170;4.442;2023-05-28T04:13:23;13.80;99.90
25923;DHT22;13725;51.170;4.442;2023-05-28T04:15:48;13.70;99.90
25923;DHT22;13725;51.170;4.442;2023-05-28T04:18:15;13.80;99.90
25923;DHT22;13725;51.170;4.442;2023-05-28T04:20:41;13.90;99.90
25923;DHT22;13725;51.170;4.442;2023-05-28T04:23:07;13.80;99.90
25923;DHT22;13725;51.170;4.442;2023-05-28T04:25:33;13.80;99.90
25923;DHT22;13725;51.170;4.442;2023-05-28T04:27:59;13.90;99.90
25923;DHT22;13725;51.170;4.442;2023-05-28T04:30:28;13.90;99.90
25923;DHT22;13725;51.170;4.442;2023-05-28T04:32:54;14.10;99.90
25923;DHT22;13725;51.170;4.442;2023-05-28T04:35:21;14.00;99.90
25923;DHT22;13725;51.170;4.442;2023-05-28T04:37:47;14.10;99.90
25923;DHT22;13725;51.170;4.442;2023-05-28T04:40:17;14.10;99.90
25923;DHT22;13725;51.170;4.442;2023-05-28T04:42:43;14.10;99.90
25923;DHT22;13725;51.170;4.442;2023-05-28T04:45:12;14.20;99.90
25923;DHT22;13725;51.170;4.442;2023-05-28T04:47:42;14.30;99.90
25923;DHT22;13725;51.170;4.442;2023-05-28T04:50:08;14.40;99.90
25923;DHT22;13725;51.170;4.442;2023-05-28T04:52:35;14.40;99.90
25923;DHT22;13725;51.170;4.442;2023-05-28T04:55:02;14.40;99.90
25923;DHT22;13725;51.170;4.442;2023-05-28T04:57:29;14.50;99.90
25923;DHT22;13725;51.170;4.442;2023-05-28T04:59:56;14.50;99.90
25923;DHT22;13725;51.170;4.442;2023-05-28T05:02:22;14.60;99.90
25923;DHT22;13725;51.170;4.442;2023-05-28T05:04:48;14.70;99.90
25923;DHT22;13725;51.170;4.442;2023-05-28T05:07:17;14.80;99.90
25923;DHT22;13725;51.170;4.442;2023-05-28T05:09:43;14.80;99.90
25923;DHT22;13725;51.170;4.442;2023-05-28T05:12:09;14.90;99.90
25923;DHT22;13725;51.170;4.442;2023-05-28T05:14:35;15.00;99.90
25923;DHT22;13725;51.170;4.442;2023-05-28T05:17:02;15.10;99.90
25923;DHT22;13725;51.170;4.442;2023-05-28T05:19:29;15.10;99.90
25923;DHT22;13725;51.170;4.442;2023-05-28T05:21:54;15.10;99.90
25923;DHT22;13725;51.170;4.442;2023-05-28T05:24:22;15.30;99.90
25923;DHT22;13725;51.170;4.442;2023-05-28T05:26:47;15.30;99.90
25923;DHT22;13725;51.170;4.442;2023-05-28T05:29:14;15.40;99.90
25923;DHT22;13725;51.170;4.442;2023-05-28T05:31:40;15.40;99.90
25923;DHT22;13725;51.170;4.442;2023-05-28T05:34:07;15.50;99.90
25923;DHT22;13725;51.170;4.442;2023-05-28T05:36:59;15.50;99.90
25923;DHT22;13725;51.170;4.442;2023-05-28T05:39:46;15.70;99.90
25923;DHT22;13725;51.170;4.442;2023-05-28T05:42:17;15.90;99.90
25923;DHT22;13725;51.170;4.442;2023-05-28T05:44:48;16.00;99.90
25923;DHT22;13725;51.170;4.442;2023-05-28T05:47:13;16.10;99.90
25923;DHT22;13725;51.170;4.442;2023-05-28T05:49:39;16.20;99.90
25923;DHT22;13725;51.170;4.442;2023-05-28T05:52:06;16.20;99.90
25923;DHT22;13725;51.170;4.442;2023-05-28T05:54:35;16.30;99.90
25923;DHT22;13725;51.170;4.442;2023-05-28T05:57:01;16.40;99.90
25923;DHT22;13725;51.170;4.442;2023-05-28T05:59:30;16.50;99.90
25923;DHT22;13725;51.170;4.442;2023-05-28T06:01:57;16.60;99.90
25923;DHT22;13725;51.170;4.442;2023-05-28T06:04:23;16.70;99.90
25923;DHT22;13725;51.170;4.442;2023-05-28T06:07:15;17.00;99.90
25923;DHT22;13725;51.170;4.442;2023-05-28T06:09:44;17.30;99.90
25923;DHT22;13725;51.170;4.442;2023-05-28T06:12:18;17.90;99.90
25923;DHT22;13725;51.170;4.442;2023-05-28T06:14:44;18.60;99.90
25923;DHT22;13725;51.170;4.442;2023-05-28T06:17:10;19.60;99.90
25923;DHT22;13725;51.170;4.442;2023-05-28T06:19:36;20.90;99.90
25923;DHT22;13725;51.170;4.442;2023-05-28T06:22:02;22.10;99.90
25923;DHT22;13725;51.170;4.442;2023-05-28T06:24:29;23.50;99.90
25923;DHT22;13725;51.170;4.442;2023-05-28T06:26:55;24.80;99.90
25923;DHT22;13725;51.170;4.442;2023-05-28T06:29:20;25.90;99.90
25923;DHT22;13725;51.170;4.442;2023-05-28T06:31:46;26.80;99.90
25923;DHT22;13725;51.170;4.442;2023-05-28T06:34:14;27.10;99.90
25923;DHT22;13725;51.170;4.442;2023-05-28T06:36:40;27.40;99.90
25923;DHT22;13725;51.170;4.442;2023-05-28T06:39:07;27.90;99.90
25923;DHT22;13725;51.170;4.442;2023-05-28T06:41:34;28.60;99.90
25923;DHT22;13725;51.170;4.442;2023-05-28T06:44:02;28.50;99.90
25923;DHT22;13725;51.170;4.442;2023-05-28T06:46:53;28.50;99.60
25923;DHT22;13725;51.170;4.442;2023-05-28T06:49:20;28.10;99.20
25923;DHT22;13725;51.170;4.442;2023-05-28T06:51:47;28.30;98.70
25923;DHT22;13725;51.170;4.442;2023-05-28T06:54:13;28.80;97.80
25923;DHT22;13725;51.170;4.442;2023-05-28T06:56:40;29.00;96.40
25923;DHT22;13725;51.170;4.442;2023-05-28T06:59:25;28.80;96.30
25923;DHT22;13725;51.170;4.442;2023-05-28T07:02:21;28.50;96.30
25923;DHT22;13725;51.170;4.442;2023-05-28T07:04:52;28.10;96.00
25923;DHT22;13725;51.170;4.442;2023-05-28T07:07:24;28.10;96.10
25923;DHT22;13725;51.170;4.442;2023-05-28T07:09:51;28.40;96.00
25923;DHT22;13725;51.170;4.442;2023-05-28T07:12:17;29.50;95.20
25923;DHT22;13725;51.170;4.442;2023-05-28T07:14:50;30.50;93.10
25923;DHT22;13725;51.170;4.442;2023-05-28T07:17:16;30.90;91.40
25923;DHT22;13725;51.170;4.442;2023-05-28T07:19:43;31.10;90.30
25923;DHT22;13725;51.170;4.442;2023-05-28T07:22:10;31.50;89.00
25923;DHT22;13725;51.170;4.442;2023-05-28T07:24:37;32.00;87.00
25923;DHT22;13725;51.170;4.442;2023-05-28T07:27:03;32.50;85.10
25923;DHT22;13725;51.170;4.442;2023-05-28T07:29:28;32.70;83.30
25923;DHT22;13725;51.170;4.442;2023-05-28T07:31:54;33.10;81.40
25923;DHT22;13725;51.170;4.442;2023-05-28T07:34:23;32.90;80.60
25923;DHT22;13725;51.170;4.442;2023-05-28T07:36:49;32.80;78.40
25923;DHT22;13725;51.170;4.442;2023-05-28T07:39:15;32.90;78.00
25923;DHT22;13725;51.170;4.442;2023-05-28T07:41:41;33.10;76.90
25923;DHT22;13725;51.170;4.442;2023-05-28T07:44:18;32.90;76.50
25923;DHT22;13725;51.170;4.442;2023-05-28T07:46:45;33.20;76.60
25923;DHT22;13725;51.170;4.442;2023-05-28T07:49:27;33.40;76.60
25923;DHT22;13725;51.170;4.442;2023-05-28T07:51:56;33.60;75.40
25923;DHT22;13725;51.170;4.442;2023-05-28T07:54:25;34.00;73.60
25923;DHT22;13725;51.170;4.442;2023-05-28T07:56:52;34.40;73.90
25923;DHT22;13725;51.170;4.442;2023-05-28T07:59:30;34.80;72.60
25923;DHT22;13725;51.170;4.442;2023-05-28T08:01:57;34.00;71.60
25923;DHT22;13725;51.170;4.442;2023-05-28T08:04:23;34.10;71.80
25923;DHT22;13725;51.170;4.442;2023-05-28T08:06:49;34.70;71.00
25923;DHT22;13725;51.170;4.442;2023-05-28T08:09:22;34.60;69.00
25923;DHT22;13725;51.170;4.442;2023-05-28T08:11:51;34.20;69.60
25923;DHT22;13725;51.170;4.442;2023-05-28T08:14:18;34.20;69.60
25923;DHT22;13725;51.170;4.442;2023-05-28T08:16:46;34.00;69.60
25923;DHT22;13725;51.170;4.442;2023-05-28T08:19:12;34.00;68.50
25923;DHT22;13725;51.170;4.442;2023-05-28T08:21:39;34.30;68.70
25923;DHT22;13725;51.170;4.442;2023-05-28T08:24:07;34.60;67.70
25923;DHT22;13725;51.170;4.442;2023-05-28T08:26:34;34.60;67.00
25923;DHT22;13725;51.170;4.442;2023-05-28T08:29:00;35.50;67.70
25923;DHT22;13725;51.170;4.442;2023-05-28T08:31:29;36.00;65.50
25923;DHT22;13725;51.170;4.442;2023-05-28T08:34:07;35.90;64.40
25923;DHT22;13725;51.170;4.442;2023-05-28T08:36:33;35.40;63.90
25923;DHT22;13725;51.170;4.442;2023-05-28T08:39:00;34.90;63.60
25923;DHT22;13725;51.170;4.442;2023-05-28T08:41:27;34.70;64.10
25923;DHT22;13725;51.170;4.442;2023-05-28T08:43:53;34.10;64.50
25923;DHT22;13725;51.170;4.442;2023-05-28T08:46:20;33.90;64.90
25923;DHT22;13725;51.170;4.442;2023-05-28T08:49:08;34.10;65.00
25923;DHT22;13725;51.170;4.442;2023-05-28T08:51:35;35.10;64.50
25923;DHT22;13725;51.170;4.442;2023-05-28T08:54:03;34.50;62.40
25923;DHT22;13725;51.170;4.442;2023-05-28T08:56:29;33.90;64.20
25923;DHT22;13725;51.170;4.442;2023-05-28T08:58:56;34.70;64.90
25923;DHT22;13725;51.170;4.442;2023-05-28T09:01:22;35.60;62.70
25923;DHT22;13725;51.170;4.442;2023-05-28T09:04:02;36.50;61.00
25923;DHT22;13725;51.170;4.442;2023-05-28T09:06:37;37.40;60.10
25923;DHT22;13725;51.170;4.442;2023-05-28T09:09:05;37.10;59.50
25923;DHT22;13725;51.170;4.442;2023-05-28T09:11:40;37.10;59.00
25923;DHT22;13725;51.170;4.442;2023-05-28T09:14:11;37.40;59.50
25923;DHT22;13725;51.170;4.442;2023-05-28T09:16:40;36.70;58.60
25923;DHT22;13725;51.170;4.442;2023-05-28T09:19:09;36.80;59.40
25923;DHT22;13725;51.170;4.442;2023-05-28T09:21:39;36.80;58.90
25923;DHT22;13725;51.170;4.442;2023-05-28T09:24:13;36.60;59.10
25923;DHT22;13725;51.170;4.442;2023-05-28T09:26:58;36.90;59.60
25923;DHT22;13725;51.170;4.442;2023-05-28T09:29:31;37.20;58.10
25923;DHT22;13725;51.170;4.442;2023-05-28T09:32:01;37.20;58.70
25923;DHT22;13725;51.170;4.442;2023-05-28T09:34:28;37.00;57.80
25923;DHT22;13725;51.170;4.442;2023-05-28T09:37:04;37.40;59.40
25923;DHT22;13725;51.170;4.442;2023-05-28T09:39:31;37.70;57.70
25923;DHT22;13725;51.170;4.442;2023-05-28T09:44:45;37.30;57.30
25923;DHT22;13725;51.170;4.442;2023-05-28T09:49:42;36.70;58.00
25923;DHT22;13725;51.170;4.442;2023-05-28T09:52:08;37.60;56.30
25923;DHT22;13725;51.170;4.442;2023-05-28T09:54:36;37.10;57.00
25923;DHT22;13725;51.170;4.442;2023-05-28T09:57:04;37.30;55.90
25923;DHT22;13725;51.170;4.442;2023-05-28T09:59:33;37.20;55.80
25923;DHT22;13725;51.170;4.442;2023-05-28T10:02:08;37.00;55.90
25923;DHT22;13725;51.170;4.442;2023-05-28T10:04:43;35.60;56.00
25923;DHT22;13725;51.170;4.442;2023-05-28T10:07:11;35.80;56.80
25923;DHT22;13725;51.170;4.442;2023-05-28T10:09:40;35.90;56.00
25923;DHT22;13725;51.170;4.442;2023-05-28T10:12:12;36.20;56.10
25923;DHT22;13725;51.170;4.442;2023-05-28T10:14:41;36.10;55.50
25923;DHT22;13725;51.170;4.442;2023-05-28T10:17:08;37.00;56.90
25923;DHT22;13725;51.170;4.442;2023-05-28T10:19:34;37.30;54.70
25923;DHT22;13725;51.170;4.442;2023-05-28T10:22:01;37.10;55.10
25923;DHT22;13725;51.170;4.442;2023-05-28T10:24:28;37.40;55.50
25923;DHT22;13725;51.170;4.442;2023-05-28T10:26:54;38.00;54.60
25923;DHT22;13725;51.170;4.442;2023-05-28T10:29:20;39.00;54.90
25923;DHT22;13725;51.170;4.442;2023-05-28T10:31:59;39.60;53.70
25923;DHT22;13725;51.170;4.442;2023-05-28T10:34:31;40.10;52.80
25923;DHT22;13725;51.170;4.442;2023-05-28T10:37:02;40.50;51.40
25923;DHT22;13725;51.170;4.442;2023-05-28T10:39:38;40.70;51.40
25923;DHT22;13725;51.170;4.442;2023-05-28T10:42:09;40.00;51.40
25923;DHT22;13725;51.170;4.442;2023-05-28T10:47:36;39.70;52.40
25923;DHT22;13725;51.170;4.442;2023-05-28T10:52:34;39.90;52.00
25923;DHT22;13725;51.170;4.442;2023-05-28T10:55:10;39.40;51.00
25923;DHT22;13725;51.170;4.442;2023-05-28T10:57:45;38.20;50.70
25923;DHT22;13725;51.170;4.442;2023-05-28T11:00:34;37.80;52.10
25923;DHT22;13725;51.170;4.442;2023-05-28T11:03:05;38.00;52.20
25923;DHT22;13725;51.170;4.442;2023-05-28T11:05:31;38.60;53.50
25923;DHT22;13725;51.170;4.442;2023-05-28T11:07:57;39.00;51.40
25923;DHT22;13725;51.170;4.442;2023-05-28T11:10:23;38.10;51.30
25923;DHT22;13725;51.170;4.442;2023-05-28T11:12:50;38.00;52.00
25923;DHT22;13725;51.170;4.442;2023-05-28T11:15:16;37.90;53.10
25923;DHT22;13725;51.170;4.442;2023-05-28T11:17:44;38.30;53.90
25923;DHT22;13725;51.170;4.442;2023-05-28T11:20:21;38.70;52.00
25923;DHT22;13725;51.170;4.442;2023-05-28T11:22:49;38.60;51.10
25923;DHT22;13725;51.170;4.442;2023-05-28T11:25:15;37.10;52.10
25923;DHT22;13725;51.170;4.442;2023-05-28T11:27:41;36.10;53.50
25923;DHT22;13725;51.170;4.442;2023-05-28T11:30:14;36.70;53.50
25923;DHT22;13725;51.170;4.442;2023-05-28T11:32:42;38.10;53.00
25923;DHT22;13725;51.170;4.442;2023-05-28T11:35:14;39.30;52.10
25923;DHT22;13725;51.170;4.442;2023-05-28T11:37:42;39.00;50.00
25923;DHT22;13725;51.170;4.442;2023-05-28T11:40:11;38.60;51.70
25923;DHT22;13725;51.170;4.442;2023-05-28T11:42:38;39.40;51.40
25923;DHT22;13725;51.170;4.442;2023-05-28T11:45:05;40.10;49.80
25923;DHT22;13725;51.170;4.442;2023-05-28T11:47:33;39.20;49.90
25923;DHT22;13725;51.170;4.442;2023-05-28T11:49:59;39.70;50.30
25923;DHT22;13725;51.170;4.442;2023-05-28T11:52:30;39.50;49.80
25923;DHT22;13725;51.170;4.442;2023-05-28T11:54:57;39.20;51.10
25923;DHT22;13725;51.170;4.442;2023-05-28T11:57:25;39.20;51.50
25923;DHT22;13725;51.170;4.442;2023-05-28T12:00:11;40.00;51.40
25923;DHT22;13725;51.170;4.442;2023-05-28T12:02:52;40.20;50.80
25923;DHT22;13725;51.170;4.442;2023-05-28T12:05:19;41.10;51.50
25923;DHT22;13725;51.170;4.442;2023-05-28T12:07:51;41.30;49.70
25923;DHT22;13725;51.170;4.442;2023-05-28T12:10:21;41.60;48.80
25923;DHT22;13725;51.170;4.442;2023-05-28T12:12:51;41.20;49.00
25923;DHT22;13725;51.170;4.442;2023-05-28T12:15:21;41.30;49.40
25923;DHT22;13725;51.170;4.442;2023-05-28T12:17:52;41.40;48.50
25923;DHT22;13725;51.170;4.442;2023-05-28T12:22:45;41.20;47.80
25923;DHT22;13725;51.170;4.442;2023-05-28T12:25:12;41.00;48.50
25923;DHT22;13725;51.170;4.442;2023-05-28T12:27:38;40.20;48.70
25923;DHT22;13725;51.170;4.442;2023-05-28T12:30:05;40.50;49.00
25923;DHT22;13725;51.170;4.442;2023-05-28T12:32:31;40.50;48.20
25923;DHT22;13725;51.170;4.442;2023-05-28T12:34:57;40.90;48.30
25923;DHT22;13725;51.170;4.442;2023-05-28T12:37:23;41.10;48.80
25923;DHT22;13725;51.170;4.442;2023-05-28T12:39:51;40.60;47.70
25923;DHT22;13725;51.170;4.442;2023-05-28T12:42:17;40.70;48.20
25923;DHT22;13725;51.170;4.442;2023-05-28T12:44:43;40.90;48.10
25923;DHT22;13725;51.170;4.442;2023-05-28T12:47:09;40.90;48.90
25923;DHT22;13725;51.170;4.442;2023-05-28T12:49:35;40.40;49.30
25923;DHT22;13725;51.170;4.442;2023-05-28T12:52:01;39.40;49.70
25923;DHT22;13725;51.170;4.442;2023-05-28T12:54:27;39.20;50.00
25923;DHT22;13725;51.170;4.442;2023-05-28T12:56:52;39.30;50.60
25923;DHT22;13725;51.170;4.442;2023-05-28T12:59:26;39.00;49.50
25923;DHT22;13725;51.170;4.442;2023-05-28T13:01:52;38.00;49.80
25923;DHT22;13725;51.170;4.442;2023-05-28T13:04:18;37.80;51.20
25923;DHT22;13725;51.170;4.442;2023-05-28T13:06:44;37.60;50.60
25923;DHT22;13725;51.170;4.442;2023-05-28T13:09:11;37.10;50.80
25923;DHT22;13725;51.170;4.442;2023-05-28T13:11:41;37.20;51.40
25923;DHT22;13725;51.170;4.442;2023-05-28T13:14:07;37.70;51.10
25923;DHT22;13725;51.170;4.442;2023-05-28T13:16:35;38.30;50.90
25923;DHT22;13725;51.170;4.442;2023-05-28T13:19:01;38.40;51.50
25923;DHT22;13725;51.170;4.442;2023-05-28T13:21:28;38.30;50.20
25923;DHT22;13725;51.170;4.442;2023-05-28T13:24:00;37.80;50.90
25923;DHT22;13725;51.170;4.442;2023-05-28T13:26:27;37.60;50.70
25923;DHT22;13725;51.170;4.442;2023-05-28T13:28:53;37.20;51.50
25923;DHT22;13725;51.170;4.442;2023-05-28T13:31:19;36.80;51.10
25923;DHT22;13725;51.170;4.442;2023-05-28T13:33:45;36.80;51.80
25923;DHT22;13725;51.170;4.442;2023-05-28T13:36:11;36.60;50.70
25923;DHT22;13725;51.170;4.442;2023-05-28T13:38:37;36.40;50.70
25923;DHT22;13725;51.170;4.442;2023-05-28T13:41:03;35.50;53.20
25923;DHT22;13725;51.170;4.442;2023-05-28T13:43:30;34.80;52.60
25923;DHT22;13725;51.170;4.442;2023-05-28T13:45:56;34.00;54.50
25923;DHT22;13725;51.170;4.442;2023-05-28T13:48:22;33.50;54.30
25923;DHT22;13725;51.170;4.442;2023-05-28T13:50:48;33.10;54.60
25923;DHT22;13725;51.170;4.442;2023-05-28T13:53:14;32.60;54.60
25923;DHT22;13725;51.170;4.442;2023-05-28T13:55:40;32.10;54.80
25923;DHT22;13725;51.170;4.442;2023-05-28T13:58:05;31.50;56.40
25923;DHT22;13725;51.170;4.442;2023-05-28T14:00:33;31.00;56.20
25923;DHT22;13725;51.170;4.442;2023-05-28T14:02:58;30.40;57.10
25923;DHT22;13725;51.170;4.442;2023-05-28T14:05:24;29.90;57.90
25923;DHT22;13725;51.170;4.442;2023-05-28T14:07:50;29.60;57.90
25923;DHT22;13725;51.170;4.442;2023-05-28T14:10:16;29.40;57.60
25923;DHT22;13725;51.170;4.442;2023-05-28T14:12:42;28.90;59.00
25923;DHT22;13725;51.170;4.442;2023-05-28T14:15:09;28.70;59.60
25923;DHT22;13725;51.170;4.442;2023-05-28T14:17:35;28.60;59.70
25923;DHT22;13725;51.170;4.442;2023-05-28T14:20:00;28.60;62.50
25923;DHT22;13725;51.170;4.442;2023-05-28T14:22:26;28.60;60.90
25923;DHT22;13725;51.170;4.442;2023-05-28T14:24:52;28.30;61.60
25923;DHT22;13725;51.170;4.442;2023-05-28T14:27:18;28.20;59.90
25923;DHT22;13725;51.170;4.442;2023-05-28T14:29:43;28.10;59.10
25923;DHT22;13725;51.170;4.442;2023-05-28T14:32:09;27.90;63.00
25923;DHT22;13725;51.170;4.442;2023-05-28T14:34:36;27.90;61.70
25923;DHT22;13725;51.170;4.442;2023-05-28T14:37:02;27.90;65.20
25923;DHT22;13725;51.170;4.442;2023-05-28T14:39:28;28.00;63.90
25923;DHT22;13725;51.170;4.442;2023-05-28T14:41:54;28.00;63.30
25923;DHT22;13725;51.170;4.442;2023-05-28T14:44:19;27.90;63.10
25923;DHT22;13725;51.170;4.442;2023-05-28T14:46:45;27.90;65.70
25923;DHT22;13725;51.170;4.442;2023-05-28T14:49:11;28.00;65.50
25923;DHT22;13725;51.170;4.442;2023-05-28T14:51:37;27.90;65.20
25923;DHT22;13725;51.170;4.442;2023-05-28T14:54:02;27.60;65.60
25923;DHT22;13725;51.170;4.442;2023-05-28T14:56:28;27.40;65.60
25923;DHT22;13725;51.170;4.442;2023-05-28T14:58:54;27.10;65.10
25923;DHT22;13725;51.170;4.442;2023-05-28T15:01:20;26.90;65.90
25923;DHT22;13725;51.170;4.442;2023-05-28T15:03:45;26.90;65.30
25923;DHT22;13725;51.170;4.442;2023-05-28T15:06:11;26.90;63.50
25923;DHT22;13725;51.170;4.442;2023-05-28T15:08:37;26.80;64.60
25923;DHT22;13725;51.170;4.442;2023-05-28T15:11:03;26.70;66.50
25923;DHT22;13725;51.170;4.442;2023-05-28T15:13:29;26.60;65.90
25923;DHT22;13725;51.170;4.442;2023-05-28T15:15:55;26.50;66.90
25923;DHT22;13725;51.170;4.442;2023-05-28T15:18:21;26.50;68.80
25923;DHT22;13725;51.170;4.442;2023-05-28T15:20:47;26.60;67.90
25923;DHT22;13725;51.170;4.442;2023-05-28T15:23:12;26.50;67.70
25923;DHT22;13725;51.170;4.442;2023-05-28T15:25:38;26.60;68.30
25923;DHT22;13725;51.170;4.442;2023-05-28T15:28:04;26.50;68.70
25923;DHT22;13725;51.170;4.442;2023-05-28T15:30:30;26.40;69.20
25923;DHT22;13725;51.170;4.442;2023-05-28T15:32:59;26.40;68.20
25923;DHT22;13725;51.170;4.442;2023-05-28T15:35:26;26.30;68.50
25923;DHT22;13725;51.170;4.442;2023-05-28T15:37:53;26.30;68.60
25923;DHT22;13725;51.170;4.442;2023-05-28T15:40:21;26.20;69.30
25923;DHT22;13725;51.170;4.442;2023-05-28T15:42:48;26.20;66.70
25923;DHT22;13725;51.170;4.442;2023-05-28T15:45:15;26.10;67.20
25923;DHT22;13725;51.170;4.442;2023-05-28T15:47:41;25.90;66.50